Time;durP1;ratioP1;P1;durP2;ratioP2;P2;SDS_P1;SDS_P2;PMS_P1;PMS_P2;Temp;Humidity;BMP_temperature;BMP_pressure;BME280_temperature;BME280_humidity;BME280_pressure;Samples;Min_cycle;Max_cycle;Signal;HPM_P1;HPM_P2
2022/04/23 00:02:20;;;;;;;20.73;18.63;;;6.80;99.90;;;6.51;71.99;100663.84;4803953;29;20220;-69
2022/04/23 00:04:50;;;;;;;21.20;19.10;;;6.80;99.90;;;6.58;71.78;100669.34;4819273;29;20637;-69
2022/04/23 00:07:19;;;;;;;21.73;19.55;;;6.80;99.90;;;6.68;71.35;100661.84;4824893;24;20243;-69
2022/04/23 00:09:48;;;;;;;21.17;19.20;;;6.80;99.90;;;6.66;71.23;100655.81;4825869;29;20205;-67
2022/04/23 00:12:19;;;;;;;22.45;20.33;;;6.80;99.90;;;6.71;71.01;100664.16;4825427;29;20826;-68
2022/04/23 00:14:48;;;;;;;20.50;18.58;;;6.90;99.90;;;6.67;71.25;100662.88;4825600;29;20211;-68
2022/04/23 00:17:18;;;;;;;22.33;20.13;;;6.80;99.90;;;6.58;71.23;100653.22;4814588;29;20214;-69
2022/04/23 00:19:47;;;;;;;22.98;20.58;;;6.80;99.90;;;6.57;71.49;100662.28;4807352;29;20205;-69
2022/04/23 00:22:16;;;;;;;21.63;19.42;;;6.80;99.90;;;6.62;71.24;100662.56;4807253;29;20190;-69
2022/04/23 00:24:45;;;;;;;22.55;20.23;;;6.80;99.90;;;6.58;71.27;100664.81;4807186;29;20205;-69
2022/04/23 00:27:14;;;;;;;22.38;20.02;;;6.80;99.90;;;6.57;71.35;100664.97;4807118;29;20261;-69
2022/04/23 00:29:46;;;;;;;21.88;19.67;;;6.80;99.90;;;6.47;71.38;100663.38;4807341;29;20180;-69
2022/04/23 00:32:14;;;;;;;21.33;19.27;;;6.70;99.90;;;6.46;71.40;100655.47;4806928;29;20205;-69
2022/04/23 00:34:43;;;;;;;21.17;19.27;;;6.70;99.90;;;6.40;71.22;100657.03;4806004;29;20221;-67
2022/04/23 00:37:13;;;;;;;20.67;18.67;;;6.60;99.90;;;6.33;71.53;100656.09;4807021;29;20648;-69
2022/04/23 00:39:42;;;;;;;20.73;18.77;;;6.60;99.90;;;6.36;71.15;100661.09;4806983;29;20181;-69
2022/04/23 00:42:11;;;;;;;20.98;18.90;;;6.50;99.90;;;6.43;70.83;100666.63;4806841;29;20198;-70
2022/04/23 00:44:41;;;;;;;21.02;18.85;;;6.60;99.90;;;6.41;70.78;100669.47;4807110;29;20190;-69
2022/04/23 00:47:11;;;;;;;20.17;18.08;;;6.60;99.90;;;6.44;70.61;100661.03;4807175;29;20214;-67
2022/04/23 00:49:40;;;;;;;22.55;19.80;;;6.60;99.90;;;6.38;70.81;100658.25;4807459;29;20197;-69
2022/04/23 00:52:10;;;;;;;20.35;18.42;;;6.60;99.90;;;6.31;70.82;100663.50;4806591;29;20289;-68
2022/04/23 00:54:41;;;;;;;22.15;19.88;;;6.60;99.90;;;6.34;70.75;100663.13;4806784;29;20258;-70
2022/04/23 00:57:10;;;;;;;22.13;19.75;;;6.50;99.90;;;6.25;70.78;100669.59;4806881;29;20221;-71
2022/04/23 00:59:40;;;;;;;20.90;18.77;;;6.50;99.90;;;6.24;71.34;100659.88;4806719;29;20212;-68
2022/04/23 01:02:10;;;;;;;20.80;18.70;;;6.40;99.90;;;6.12;71.24;100658.59;4806755;29;20675;-68
2022/04/23 01:04:39;;;;;;;21.92;19.70;;;6.40;99.90;;;6.14;71.69;100658.44;4806665;29;20176;-69
2022/04/23 01:07:11;;;;;;;20.52;18.73;;;6.30;99.90;;;6.00;71.92;100652.81;4806520;29;20775;-69
2022/04/23 01:09:44;;;;;;;23.00;20.50;;;6.30;99.90;;;5.89;71.83;100663.97;4806977;29;20698;-70
2022/04/23 01:12:13;;;;;;;23.65;21.20;;;6.20;99.90;;;5.94;72.25;100658.06;4806371;29;20198;-69
2022/04/23 01:15:01;;;;;;;24.35;22.15;;;6.10;99.90;;;5.91;72.17;100661.09;4806434;29;20574;-70
2022/04/23 01:17:31;;;;;;;21.73;19.63;;;6.10;99.90;;;5.85;72.46;100656.44;4806430;29;20520;-69
2022/04/23 01:20:05;;;;;;;25.30;22.83;;;6.10;99.90;;;5.73;72.69;100663.19;4806394;29;20688;-69
2022/04/23 01:22:36;;;;;;;22.83;20.45;;;6.00;99.90;;;5.66;72.71;100658.50;4805339;29;20206;-69
2022/04/23 01:25:07;;;;;;;22.98;19.88;;;6.00;99.90;;;5.59;73.19;100659.41;4806594;29;20573;-70
2022/04/23 01:27:37;;;;;;;27.63;21.90;;;5.90;99.90;;;5.67;73.06;100657.50;4806239;29;20221;-69
2022/04/23 01:30:10;;;;;;;23.67;21.27;;;5.90;99.90;;;5.67;72.50;100654.81;4806509;29;20181;-67
2022/04/23 01:32:39;;;;;;;23.55;21.25;;;5.90;99.90;;;5.74;72.62;100659.50;4806245;29;20193;-70
2022/04/23 01:35:10;;;;;;;26.17;23.38;;;5.90;99.90;;;5.82;72.27;100656.75;4806201;29;20241;-70
2022/04/23 01:37:39;;;;;;;21.67;19.38;;;5.90;99.90;;;5.86;71.65;100658.06;4806209;29;20771;-67
2022/04/23 01:40:09;;;;;;;25.17;20.60;;;6.00;99.90;;;5.90;71.49;100659.44;4806098;29;20193;-69
2022/04/23 01:42:39;;;;;;;24.58;22.27;;;6.00;99.90;;;5.85;71.56;100656.44;4806161;29;20262;-70
2022/04/23 01:45:08;;;;;;;24.85;22.02;;;6.00;99.90;;;5.87;71.40;100654.41;4805972;29;20182;-69
2022/04/23 01:47:37;;;;;;;26.02;23.33;;;6.00;99.90;;;5.84;71.13;100654.75;4805860;29;20278;-69
2022/04/23 01:50:09;;;;;;;22.40;19.70;;;6.00;99.90;;;5.83;71.46;100653.91;4805889;29;20189;-69
2022/04/23 01:52:38;;;;;;;23.80;21.40;;;6.00;99.90;;;5.91;71.16;100655.72;4806194;29;20189;-70
2022/04/23 01:55:08;;;;;;;22.45;20.00;;;6.00;99.90;;;5.84;71.46;100652.06;4805995;29;20207;-68
2022/04/23 01:57:37;;;;;;;21.58;19.30;;;6.00;99.90;;;5.89;71.13;100655.09;4806147;29;20273;-69
2022/04/23 02:00:08;;;;;;;23.27;20.95;;;6.00;99.90;;;5.93;70.80;100648.34;4806026;29;20188;-69
2022/04/23 02:02:39;;;;;;;20.75;18.48;;;6.10;99.90;;;5.86;70.93;100644.63;4806955;29;20254;-70
2022/04/23 02:05:11;;;;;;;24.52;19.90;;;6.00;99.90;;;5.91;70.69;100655.72;4807278;29;20198;-69
2022/04/23 02:07:43;;;;;;;23.13;19.92;;;6.00;99.90;;;5.83;70.70;100653.91;4806698;29;20252;-70
2022/04/23 02:10:15;;;;;;;27.08;19.15;;;6.00;99.90;;;5.76;71.07;100654.81;4806238;29;20193;-69
2022/04/23 02:12:46;;;;;;;21.95;18.63;;;6.00;99.90;;;5.69;71.11;100651.97;4807605;29;20182;-69
2022/04/23 02:15:17;;;;;;;23.13;19.98;;;5.90;99.90;;;5.63;71.44;100656.19;4805898;29;20657;-68
2022/04/23 02:17:50;;;;;;;21.10;18.70;;;5.90;99.90;;;5.62;71.45;100661.72;4805910;29;20218;-69
2022/04/23 02:20:23;;;;;;;20.73;18.52;;;5.90;99.90;;;5.65;71.17;100662.25;4805971;29;20714;-69
2022/04/23 02:22:51;;;;;;;16.75;13.48;;;5.80;99.90;;;5.65;70.95;100662.25;4811833;29;20208;-68
2022/04/23 02:25:20;;;;;;;15.80;14.13;;;5.90;99.90;;;5.59;71.21;100662.94;4812000;29;20189;-69
2022/04/23 02:27:50;;;;;;;17.00;14.63;;;5.80;99.90;;;5.55;71.51;100661.63;4805896;29;20236;-71
2022/04/23 02:30:21;;;;;;;16.08;13.68;;;5.80;99.90;;;5.59;71.40;100668.31;4805951;29;20193;-70
2022/04/23 02:32:50;;;;;;;12.60;11.30;;;5.80;99.90;;;5.52;71.53;100666.47;4806952;29;20257;-70
2022/04/23 02:35:20;;;;;;;19.52;13.90;;;5.70;99.90;;;5.41;71.90;100665.03;4806639;29;20201;-70
2022/04/23 02:37:55;;;;;;;12.88;11.50;;;5.70;99.90;;;5.30;72.15;100661.88;4806135;29;20246;-70
2022/04/23 02:40:24;;;;;;;16.02;10.55;;;5.60;99.90;;;5.21;72.59;100661.94;4806198;29;20671;-71
2022/04/23 02:42:53;;;;;;;12.10;9.35;;;;;;;5.20;72.21;100656.72;4806523;29;20736;-71
2022/04/23 02:45:25;;;;;;;11.57;8.98;;;;;;;5.19;72.64;100660.41;4805746;29;20646;-70
2022/04/23 02:47:55;;;;;;;10.45;7.85;;;;;;;5.27;72.44;100660.41;4805628;29;20221;-69
2022/04/23 02:50:27;;;;;;;10.38;6.97;;;;;;;5.29;72.01;100663.72;4805973;29;20182;-69
2022/04/23 02:52:57;;;;;;;7.07;6.07;;;;;;;5.22;72.14;100668.13;4805824;29;20185;-70
2022/04/23 02:55:28;;;;;;;8.23;6.93;;;;;;;5.17;72.27;100665.13;4806125;29;20683;-70
2022/04/23 02:58:00;;;;;;;7.65;6.88;;;;;;;5.12;72.46;100668.34;4809151;29;20292;-70
2022/04/23 03:00:29;;;;;;;6.78;4.65;;;;;;;5.11;72.67;100673.84;4809395;29;20214;-68
2022/04/23 03:02:59;;;;;;;7.88;5.45;;;;;;;5.14;72.26;100668.97;4810041;29;20205;-69
2022/04/23 03:05:31;;;;;;;5.47;4.32;;;;;;;5.17;72.05;100667.81;4811393;29;20652;-69
2022/04/23 03:08:01;;;;;;;5.68;4.43;;;;;;;5.21;72.04;100663.78;4810901;29;20221;-69
2022/04/23 03:10:31;;;;;;;6.50;5.15;;;;;;;5.29;71.84;100663.72;4811601;29;20202;-69
2022/04/23 03:13:00;;;;;;;8.80;6.05;;;;;;;5.27;71.54;100663.09;4816979;29;20217;-69
2022/04/23 03:15:29;;;;;;;6.63;4.22;;;;;;;5.30;71.42;100665.41;4819227;29;20216;-69
2022/04/23 03:18:07;;;;;;;5.18;4.65;;;;;;;5.30;71.57;100668.09;4820399;29;20221;-69
2022/04/23 03:20:39;;;;;;;4.45;4.15;;;;;;;5.23;71.42;100665.25;4818377;29;20238;-67
2022/04/23 03:23:08;;;;;;;5.32;3.47;;;;;;;5.27;71.34;100668.44;4812815;29;20190;-69
2022/04/23 03:25:37;;;;;;;6.43;3.55;;;;;;;5.25;71.31;100667.78;4810132;29;20202;-70
2022/04/23 03:28:07;;;;;;;5.30;4.30;;;;;;;5.24;71.27;100672.31;4813238;29;20304;-70
2022/04/23 03:30:36;;;;;;;4.15;3.28;;;;;;;5.18;71.51;100664.94;4816008;29;20225;-70
2022/04/23 03:33:05;;;;;;;1.90;1.77;;;;;;;5.11;71.93;100668.50;4815860;29;20232;-71
2022/04/23 03:35:34;;;;;;;7.20;5.35;;;;;;;5.16;71.80;100674.19;4817820;29;20217;-69
2022/04/23 03:38:04;;;;;;;2.25;1.90;;;;;;;5.07;72.12;100673.38;4818206;29;20270;-69
2022/04/23 03:40:33;;;;;;;3.78;3.47;;;;;;;5.01;72.10;100674.06;4817870;29;20205;-69
2022/04/23 03:43:03;;;;;;;9.23;2.85;;;;;;;4.94;72.02;100677.59;4810636;29;20202;-68
2022/04/23 03:45:33;;;;;;;3.88;3.58;;;;;;;5.01;71.91;100673.22;4809120;29;20209;-69
2022/04/23 03:48:02;;;;;;;5.32;3.13;;;;;;;4.95;71.82;100680.09;4809879;29;20246;-69
2022/04/23 03:50:32;;;;;;;6.50;5.70;;;;;;;4.96;72.18;100680.94;4809990;29;20186;-70
2022/04/23 03:53:03;;;;;;;4.57;3.28;;;;;;;4.78;72.29;100678.47;4809929;29;20614;-70
2022/04/23 03:55:31;;;;;;;3.38;3.17;;;6.10;99.90;;;4.75;72.75;100673.44;4809199;29;20209;-69
2022/04/23 03:58:01;;;;;;;4.03;2.28;;;5.10;99.90;;;4.70;72.80;100679.28;4809262;29;20262;-69
2022/04/23 04:00:30;;;;;;;6.32;2.97;;;5.00;99.90;;;4.68;72.90;100683.16;4809240;29;20197;-69
2022/04/23 04:02:59;;;;;;;3.63;3.10;;;4.90;99.90;;;4.69;72.76;100683.00;4808492;29;20211;-69
2022/04/23 04:05:31;;;;;;;2.47;1.50;;;4.90;99.90;;;4.85;72.62;100683.97;4808477;29;20205;-70
2022/04/23 04:08:00;;;;;;;3.38;2.33;;;5.00;99.90;;;4.89;71.96;100688.00;4808181;29;20795;-69
2022/04/23 04:10:30;;;;;;;4.55;4.15;;;5.00;99.90;;;4.96;71.73;100691.66;4808316;29;20292;-69
2022/04/23 04:12:58;;;;;;;1.42;1.33;;;5.00;99.90;;;5.05;71.38;100694.16;4808381;29;20235;-69
2022/04/23 04:15:27;;;;;;;3.78;3.10;;;5.10;99.90;;;5.13;71.56;100698.69;4808691;29;20681;-69
2022/04/23 04:17:56;;;;;;;6.88;3.95;;;5.20;99.90;;;5.86;69.32;100701.03;4808445;29;20217;-69
2022/04/23 04:20:25;;;;;;;5.63;2.97;;;5.40;99.90;;;6.53;66.90;100700.25;4808172;29;20182;-70
2022/04/23 04:22:55;;;;;;;4.70;3.90;;;5.80;99.90;;;7.13;65.17;100696.69;4806734;29;20196;-69
2022/04/23 04:25:24;;;;;;;2.60;2.40;;;6.20;99.90;;;7.36;63.74;100694.72;4808540;29;20220;-68
2022/04/23 04:27:54;;;;;;;4.72;2.67;;;6.60;99.90;;;7.61;62.84;100694.44;4808223;29;20205;-69
2022/04/23 04:30:23;;;;;;;3.08;2.80;;;6.80;97.70;;;8.05;61.70;100689.78;4807510;29;20244;-69
2022/04/23 04:32:52;;;;;;;3.17;2.75;;;7.10;93.40;;;8.45;60.11;100682.97;4808733;29;20185;-69
2022/04/23 04:35:21;;;;;;;3.78;2.63;;;7.40;86.20;;;8.76;59.07;100688.03;4808238;29;20707;-69
2022/04/23 04:37:50;;;;;;;3.38;2.35;;;7.70;73.50;;;9.31;57.79;100683.63;4808703;29;20825;-69
2022/04/23 04:40:18;;;;;;;3.78;3.28;;;8.10;63.80;;;10.00;56.40;100690.59;4808323;29;20190;-69
2022/04/23 04:42:47;;;;;;;2.55;2.30;;;8.30;58.30;;;10.58;54.45;100684.69;4808165;29;20272;-69
2022/04/23 04:45:17;;;;;;;4.82;2.85;;;8.80;53.40;;;10.86;53.44;100693.44;4807614;29;20703;-69
2022/04/23 04:47:46;;;;;;;3.10;2.90;;;9.20;40.90;;;11.15;52.88;100689.44;4807577;29;20213;-70
2022/04/23 04:50:15;;;;;;;5.15;3.20;;;9.30;37.90;;;11.54;51.74;100694.78;4807486;29;20194;-69
2022/04/23 04:52:44;;;;;;;5.30;3.60;;;9.70;31.20;;;11.86;50.87;100692.19;4807463;29;20193;-68
2022/04/23 04:55:13;;;;;;;3.50;2.72;;;9.60;29.60;;;12.24;49.54;100698.47;4807055;29;20236;-69
2022/04/23 04:57:42;;;;;;;3.70;2.75;;;9.70;27.50;;;12.75;48.88;100694.75;4807260;29;20659;-69
2022/04/23 05:00:12;;;;;;;4.97;2.92;;;9.90;26.40;;;13.04;47.95;100696.81;4806734;29;20242;-70
2022/04/23 05:02:42;;;;;;;2.90;2.27;;;10.20;24.40;;;12.99;47.62;100688.50;4806832;29;20280;-69
2022/04/23 05:05:11;;;;;;;3.07;2.77;;;10.50;21.70;;;12.83;47.43;100692.59;4807009;29;20434;-68
2022/04/23 05:07:39;;;;;;;2.90;2.50;;;10.70;19.60;;;13.04;47.11;100696.81;4806785;29;20445;-70
2022/04/23 05:10:09;;;;;;;4.10;2.07;;;10.80;19.20;;;12.87;47.38;100695.72;4806846;29;20538;-69
2022/04/23 05:12:38;;;;;;;3.30;2.30;;;11.10;16.90;;;12.17;48.72;100700.38;4807453;29;20404;-69
2022/04/23 05:15:07;;;;;;;2.83;2.53;;;11.10;16.20;;;9.88;53.79;100697.59;4807841;29;20432;-69
2022/04/23 05:17:39;;;;;;;5.07;2.75;;;10.00;17.40;;;8.69;57.17;100701.44;4808674;29;20232;-69
2022/04/23 05:20:12;;;;;;;4.07;3.38;;;9.20;22.30;;;7.80;59.82;100704.63;4809208;29;20178;-69
2022/04/23 05:22:40;;;;;;;4.97;4.45;;;8.40;26.40;;;7.35;61.87;100711.94;4809355;29;20182;-71
2022/04/23 05:25:10;;;;;;;2.70;2.30;;;7.80;32.50;;;7.24;62.45;100707.00;4810071;29;20193;-71
2022/04/23 05:27:39;;;;;;;3.78;3.47;;;7.50;41.40;;;7.29;62.57;100712.66;4811360;29;20277;-67
2022/04/23 05:30:09;;;;;;;4.45;3.17;;;7.40;49.50;;;7.31;62.72;100715.97;4809657;29;20198;-71
2022/04/23 05:32:38;;;;;;;3.63;2.45;;;7.40;54.70;;;7.34;62.71;100712.94;4808469;29;20230;-69
2022/04/23 05:35:13;;;;;;;4.03;2.67;;;7.40;56.70;;;7.44;62.36;100715.34;4806460;29;20556;-69
2022/04/23 05:37:42;;;;;;;4.60;3.47;;;7.50;57.90;;;7.46;62.54;100712.47;4806919;29;20760;-69
2022/04/23 05:40:12;;;;;;;5.22;2.05;;;7.50;59.70;;;7.63;62.31;100714.78;4807867;29;20254;-69
2022/04/23 05:42:41;;;;;;;3.50;2.67;;;7.60;61.30;;;7.77;61.84;100710.41;4808516;29;20557;-70
2022/04/23 05:45:11;;;;;;;9.30;3.35;;;7.80;57.80;;;7.74;61.82;100710.78;4808254;29;20281;-69
2022/04/23 05:47:41;;;;;;;5.97;2.60;;;7.80;55.90;;;7.91;61.46;100716.78;4806942;29;20220;-69
2022/04/23 05:50:10;;;;;;;2.47;1.90;;;7.90;55.60;;;7.94;61.14;100711.84;4806950;29;20276;-70
2022/04/23 05:52:40;;;;;;;2.90;2.55;;;8.00;53.50;;;8.01;61.26;100711.91;4806315;29;20196;-70
2022/04/23 05:55:10;;;;;;;7.13;2.58;;;8.10;52.70;;;8.14;61.01;100712.91;4806897;29;20224;-71
2022/04/23 05:57:40;;;;;;;2.45;2.17;;;8.10;51.50;;;8.25;60.49;100711.56;4806428;29;20304;-70
2022/04/23 06:00:12;;;;;;;5.50;2.13;;;8.30;50.10;;;8.41;60.21;100713.22;4806411;29;20655;-69
2022/04/23 06:02:41;;;;;;;2.58;1.98;;;8.40;49.20;;;8.48;59.93;100709.53;4806199;29;20243;-71
2022/04/23 06:05:11;;;;;;;3.85;2.35;;;8.50;46.40;;;8.61;59.98;100708.84;4806084;29;20185;-70
2022/04/23 06:07:41;;;;;;;3.25;2.67;;;8.60;46.10;;;8.76;59.70;100712.31;4811613;24;20754;-69
2022/04/23 06:10:11;;;;;;;4.43;2.05;;;8.80;45.10;;;8.91;59.01;100713.03;4794360;29;20217;-69
2022/04/23 06:12:39;;;;;;;3.92;2.92;;;8.90;44.00;;;9.19;58.69;100713.06;4786937;29;20708;-70
2022/04/23 06:15:09;;;;;;;6.50;4.10;;;9.10;42.70;;;9.23;58.25;100713.47;4787170;29;20201;-70
2022/04/23 06:17:38;;;;;;;3.22;2.17;;;9.20;39.50;;;9.27;58.30;100714.75;4796087;29;20699;-70
2022/04/23 06:20:08;;;;;;;6.57;3.15;;;9.30;38.70;;;9.35;57.99;100717.28;4805089;29;20277;-70
2022/04/23 06:22:37;;;;;;;4.68;3.65;;;9.30;37.50;;;9.38;57.79;100716.91;4804740;29;20189;-69
2022/04/23 06:25:09;;;;;;;3.95;2.72;;;9.40;37.30;;;9.57;57.41;100718.88;4804629;29;20205;-70
2022/04/23 06:27:38;;;;;;;4.40;3.08;;;9.50;34.70;;;9.58;57.28;100712.44;4804517;29;20264;-70
2022/04/23 06:30:09;;;;;;;3.13;2.65;;;9.60;34.20;;;9.67;57.52;100708.53;4804520;29;20582;-70
2022/04/23 06:32:39;;;;;;;5.15;2.97;;;9.60;34.70;;;9.74;57.30;100717.50;4804237;29;20704;-69
2022/04/23 06:35:09;;;;;;;2.45;2.25;;;9.70;33.30;;;9.84;57.30;100719.84;4804439;29;20702;-69
2022/04/23 06:37:42;;;;;;;6.47;2.60;;;9.80;33.10;;;9.87;56.84;100717.59;4803144;29;20663;-70
2022/04/23 06:40:14;;;;;;;10.95;4.57;;;9.90;32.30;;;9.97;56.49;100717.19;4804400;29;20197;-70
2022/04/23 06:42:43;;;;;;;3.30;2.67;;;9.90;31.30;;;10.03;56.45;100719.06;4788874;29;20281;-70
2022/04/23 06:45:13;;;;;;;6.38;3.92;;;10.00;29.50;;;10.19;56.28;100720.63;4786601;29;20727;-69
2022/04/23 06:47:41;;;;;;;5.23;3.70;;;10.10;29.80;;;10.41;55.91;100719.41;4786241;29;20763;-70
2022/04/23 06:50:11;;;;;;;3.97;2.20;;;10.30;28.90;;;10.43;55.31;100723.59;4786281;29;20490;-69
2022/04/23 06:52:40;;;;;;;2.90;2.67;;;10.40;27.10;;;10.66;54.99;100725.06;4786265;29;20446;-70
2022/04/23 06:55:09;;;;;;;4.63;4.20;;;10.60;27.00;;;10.73;55.27;100724.03;4786683;29;20475;-71
2022/04/23 06:57:50;;;;;;;5.40;2.77;;;10.70;26.80;;;10.80;54.85;100730.28;4786074;29;20461;-71
2022/04/23 07:00:19;;;;;;;3.73;1.90;;;10.80;25.80;;;10.81;55.03;100731.94;4786195;29;20418;-71
2022/04/23 07:02:48;;;;;;;5.10;4.47;;;10.80;25.80;;;11.01;54.87;100720.28;4784240;29;20420;-70
2022/04/23 07:05:17;;;;;;;3.00;2.70;;;10.90;25.90;;;11.01;54.50;100717.59;4771125;30;20428;-70
2022/04/23 07:07:57;;;;;;;7.97;3.40;;;11.10;24.70;;;11.16;53.88;100715.50;4769742;29;20801;-70
2022/04/23 07:10:28;;;;;;;2.60;2.40;;;11.20;23.70;;;11.28;53.74;100717.34;4781828;29;21010;-70
2022/04/23 07:12:59;;;;;;;2.97;2.17;;;11.20;23.30;;;11.38;53.18;100726.91;4768093;30;20425;-71
2022/04/23 07:15:29;;;;;;;3.70;3.40;;;11.30;22.00;;;11.49;51.88;100724.38;4768078;30;20420;-70
2022/04/23 07:17:58;;;;;;;3.43;2.60;;;11.50;19.90;;;11.62;51.71;100721.63;4767909;30;20453;-69
2022/04/23 07:20:27;;;;;;;2.20;2.03;;;11.60;19.10;;;11.60;51.55;100712.91;4767892;30;20441;-70
2022/04/23 07:25:43;;;;;;;2.33;2.00;;;11.70;18.70;;;11.80;51.22;100723.72;4768285;30;20522;-70
2022/04/23 07:28:13;;;;;;;4.83;2.17;;;11.80;17.80;;;11.91;50.87;100722.22;4768358;30;20503;-70
2022/04/23 07:30:42;;;;;;;7.30;2.57;;;11.90;17.00;;;12.02;50.74;100713.38;4768032;30;20784;-71
2022/04/23 07:37:28;;;;;;;3.10;2.60;;;11.90;16.90;;;11.84;51.63;100710.56;4767649;30;20412;-71
2022/04/23 07:38:47;;;;;;;6.20;2.60;;;12.10;17.10;;;12.40;50.10;100716.94;4767730;30;20494;-70
2022/04/23 07:41:15;;;;;;;1.73;1.63;;;12.30;16.20;;;12.35;50.00;100714.03;4768513;30;20434;-71
2022/04/23 07:43:46;;;;;;;3.47;2.23;;;12.30;15.20;;;12.46;49.99;100709.78;4771313;30;20938;-70
2022/04/23 07:46:15;;;;;;;3.13;2.30;;;12.40;15.00;;;12.67;49.76;100705.91;4770986;30;20437;-70
2022/04/23 07:48:43;;;;;;;2.80;2.53;;;12.60;14.70;;;12.64;49.70;100708.00;4770847;30;20435;-70
2022/04/23 07:51:12;;;;;;;4.40;2.80;;;12.50;14.10;;;12.78;49.76;100697.06;4771103;30;20416;-70
2022/04/23 07:53:41;;;;;;;3.47;2.60;;;12.70;14.30;;;12.70;49.78;100709.00;4770872;30;20419;-70
2022/04/23 07:56:10;;;;;;;2.57;2.33;;;12.70;10.90;;;12.82;49.06;100703.69;4771302;30;20424;-70
2022/04/23 07:58:38;;;;;;;4.07;2.77;;;12.70;1.00;;;12.73;50.02;100692.25;4770563;30;20459;-71
2022/04/23 08:01:09;;;;;;;5.50;4.20;;;12.70;1.00;;;12.69;49.45;100703.78;4770896;30;20407;-71
2022/04/23 08:03:37;;;;;;;3.13;2.80;;;12.70;1.00;;;12.89;49.83;100702.56;4770458;30;20447;-69
2022/04/23 08:06:07;;;;;;;8.30;4.27;;;12.80;1.00;;;13.05;49.26;100683.00;4770768;30;20750;-70
2022/04/23 08:08:36;;;;;;;3.50;2.63;;;13.00;1.00;;;13.34;48.72;100694.25;4780280;30;20945;-72
2022/04/23 08:11:05;;;;;;;3.10;2.80;;;13.20;1.00;;;13.31;48.88;100687.38;4788213;29;20417;-70
2022/04/23 08:13:33;;;;;;;2.83;2.53;;;13.20;1.00;;;13.15;48.84;100677.09;4788685;29;20428;-70
2022/04/23 08:16:03;;;;;;;6.90;4.50;;;13.10;1.00;;;13.17;48.74;100688.56;4789001;29;20819;-69
2022/04/23 08:18:33;;;;;;;3.93;3.40;;;13.10;1.00;;;13.44;48.44;100689.97;4788616;29;20487;-71
2022/04/23 08:21:02;;;;;;;5.00;4.47;;;13.30;1.00;;;13.69;48.26;100689.06;4788865;29;20856;-69
2022/04/23 08:23:33;;;;;;;4.70;3.77;;;13.50;1.00;;;13.51;48.84;100686.34;4788077;29;20475;-71
2022/04/23 08:26:05;;;;;;;4.00;2.40;;;13.40;1.00;;;13.66;48.63;100678.63;4788834;29;20441;-70
2022/04/23 08:31:21;;;;;;;4.37;3.77;;;13.70;1.00;;;14.15;47.79;100683.84;4791353;29;20424;-71
2022/04/23 08:34:00;;;;;;;4.97;2.30;;;13.90;1.00;;;14.22;45.95;100672.88;4790428;29;20418;-70
2022/04/23 08:36:32;;;;;;;3.30;2.60;;;14.10;1.00;;;14.04;46.20;100676.44;4790964;29;20446;-69
2022/04/23 08:39:01;;;;;;;3.60;3.10;;;14.00;1.00;;;14.07;46.25;100676.00;4788504;29;20450;-69
2022/04/23 08:41:31;;;;;;;4.37;2.30;;;14.00;1.00;;;14.23;46.20;100672.63;4788081;29;20411;-71
2022/04/23 08:44:08;;;;;;;5.73;3.90;;;14.10;1.00;;;14.33;46.05;100667.44;4787645;29;20764;-70
2022/04/23 08:46:39;;;;;;;5.67;3.07;;;14.20;1.00;;;14.35;45.71;100670.78;4787769;29;20420;-69
2022/04/23 08:49:13;;;;;;;3.90;2.97;;;14.30;1.00;;;14.28;46.07;100670.03;4785560;29;20419;-71
2022/04/23 08:51:48;;;;;;;2.43;1.90;;;14.20;1.00;;;14.59;45.56;100662.69;4770321;30;20442;-71
2022/04/23 08:54:17;;;;;;;4.23;2.60;;;14.40;1.00;;;14.77;45.26;100660.69;4770443;30;20423;-71
2022/04/23 08:56:47;;;;;;;3.10;1.87;;;14.50;1.00;;;14.69;44.95;100654.78;4770344;30;20486;-71
2022/04/23 08:59:20;;;;;;;3.93;2.80;;;14.70;1.00;;;14.56;45.53;100652.28;4770244;30;20466;-71
2022/04/23 09:01:55;;;;;;;3.97;3.27;;;14.60;1.00;;;14.54;45.55;100648.94;4770360;30;20508;-72
2022/04/23 09:04:26;;;;;;;3.60;2.90;;;14.50;1.00;;;14.77;45.58;100643.53;4770112;30;20452;-72
2022/04/23 09:07:00;;;;;;;3.93;2.63;;;14.50;1.00;;;14.93;45.04;100642.84;4770318;30;20464;-70
2022/04/23 09:09:29;;;;;;;5.80;4.10;;;14.70;1.00;;;15.11;44.88;100639.97;4770284;30;20520;-70
2022/04/23 09:12:00;;;;;;;4.00;2.63;;;14.90;2.70;;;15.45;42.07;100646.47;4769845;30;20927;-71
2022/04/23 09:14:31;;;;;;;4.00;2.00;;;15.10;1.00;;;15.53;40.16;100631.66;4769974;30;20440;-71
2022/04/23 09:25:44;;;;;;;4.20;2.30;;;15.40;1.00;;;16.01;39.57;100631.25;4769441;30;20420;-71
2022/04/23 09:28:18;;;;;;;3.40;2.00;;;15.70;1.00;;;16.17;38.71;100625.00;4769657;30;20456;-70
2022/04/23 09:30:49;;;;;;;2.73;2.20;;;15.90;1.00;;;16.01;38.50;100623.06;4769775;30;20408;-70
2022/04/23 09:33:18;;;;;;;3.00;2.70;;;16.00;1.00;;;15.78;39.05;100625.91;4769911;30;20400;-71
2022/04/23 09:35:57;;;;;;;2.10;1.90;;;15.80;1.00;;;15.96;38.92;100631.16;4769131;30;20436;-71
2022/04/23 09:38:29;;;;;;;2.87;2.30;;;15.80;1.00;;;15.78;39.28;100613.06;4772084;30;21004;-70
2022/04/23 09:41:15;;;;;;;4.50;2.23;;;15.60;8.90;;;15.94;38.98;100616.94;4769795;30;20468;-70
2022/04/23 09:43:46;;;;;;;2.30;1.63;;;15.70;27.40;;;16.18;38.81;100606.72;4769389;30;20440;-71
2022/04/23 09:46:15;;;;;;;2.17;1.77;;;16.00;54.30;;;16.11;38.56;100595.97;4782751;30;20449;-70
2022/04/23 09:48:45;;;;;;;5.23;2.20;;;16.00;52.50;;;15.72;39.19;100607.78;4768602;30;20456;-70
2022/04/23 09:51:26;;;;;;;2.57;2.23;;;15.80;1.00;;;15.44;39.25;100612.06;4769630;30;20510;-71
2022/04/23 09:53:55;;;;;;;2.43;1.87;;;15.50;1.00;;;15.46;39.44;100609.13;4769867;30;20915;-71
2022/04/23 09:56:27;;;;;;;2.90;1.93;;;15.40;1.00;;;15.34;39.40;100606.44;4769697;30;20510;-71
2022/04/23 09:58:56;;;;;;;2.20;2.00;;;15.30;13.90;;;15.39;39.79;100603.81;4769451;30;20525;-70
2022/04/23 10:01:25;;;;;;;3.43;2.77;;;15.30;19.50;;;15.74;39.09;100587.34;4769388;30;20428;-71
2022/04/23 10:03:56;;;;;;;2.40;1.83;;;15.50;1.00;;;16.01;38.64;100596.63;4769115;30;21112;-69
2022/04/23 10:06:26;;;;;;;2.37;1.90;;;15.80;1.00;;;15.81;38.91;100596.22;4768830;30;20866;-71
2022/04/23 10:08:59;;;;;;;2.70;1.77;;;15.80;1.00;;;15.39;39.66;100586.63;4769115;30;20505;-71
2022/04/23 10:11:30;;;;;;;2.30;1.80;;;15.50;1.00;;;15.75;39.23;100591.75;4768847;30;20509;-71
2022/04/23 10:14:03;;;;;;;1.53;1.40;;;15.60;1.00;;;16.04;38.82;100585.19;4768892;30;21034;-71
2022/04/23 10:16:34;;;;;;;3.30;2.53;;;15.80;1.00;;;16.31;38.23;100590.03;4768911;30;20531;-70
2022/04/23 10:19:03;;;;;;;2.70;2.20;;;16.00;1.00;;;16.16;38.08;100592.50;4769141;30;20468;-72
2022/04/23 10:21:42;;;;;;;2.47;2.00;;;16.00;1.00;;;16.46;37.95;100580.19;4769099;30;20433;-71
2022/04/23 10:24:23;;;;;;;3.40;2.50;;;16.20;1.00;;;16.58;37.33;100596.53;4768906;30;20435;-70
2022/04/23 10:26:58;;;;;;;3.43;2.47;;;16.40;1.00;;;16.88;36.74;100591.53;4768736;30;20549;-71
2022/04/23 10:29:31;;;;;;;2.33;1.43;;;16.60;1.00;;;17.09;37.13;100587.16;4768692;30;20435;-72
2022/04/23 10:32:19;;;;;;;2.70;2.10;;;16.80;1.00;;;16.59;37.21;100587.25;4767026;30;20531;-71
2022/04/23 10:34:49;;;;;;;2.90;1.87;;;16.70;1.00;;;16.37;36.90;100583.56;4768652;30;20407;-71
2022/04/23 10:37:22;;;;;;;3.13;2.60;;;16.40;1.00;;;16.41;37.27;100568.38;4768295;30;20454;-71
2022/04/23 10:40:20;;;;;;;2.13;1.83;;;16.40;1.00;;;16.56;37.13;100587.72;4768266;30;20462;-71
2022/04/23 10:43:10;;;;;;;3.60;1.93;;;16.50;1.00;;;16.53;37.41;100580.03;4768117;30;20487;-69
2022/04/23 10:45:41;;;;;;;2.03;1.83;;;16.40;1.00;;;16.69;36.46;100565.56;4768512;30;20804;-71
2022/04/23 10:48:28;;;;;;;2.77;2.17;;;16.60;1.00;;;16.93;35.88;100567.03;4769008;30;20803;-72
2022/04/23 10:51:16;;;;;;;2.47;1.70;;;16.70;1.00;;;16.78;36.37;100574.16;4768771;30;20430;-70
2022/04/23 10:54:04;;;;;;;2.73;2.53;;;16.70;1.00;;;16.72;37.11;100575.97;4769104;30;20927;-70
2022/04/23 10:56:36;;;;;;;2.07;1.53;;;16.60;1.00;;;17.09;36.40;100569.97;4768866;30;20426;-69
2022/04/23 10:59:05;;;;;;;2.83;2.50;;;16.80;1.00;;;16.91;36.86;100571.91;4768461;30;20516;-70